createdAt,value
2018-04-26T00:00:12.477Z,16.06
2018-04-26T00:02:42.225Z,16.00
2018-04-26T00:05:10.968Z,15.92
2018-04-26T00:07:40.914Z,15.83
2018-04-26T00:10:10.017Z,15.94
2018-04-26T00:12:38.383Z,15.96
2018-04-26T00:15:07.501Z,15.81
2018-04-26T00:17:37.198Z,15.49
2018-04-26T00:20:06.355Z,15.24
2018-04-26T00:22:36.414Z,15.29
2018-04-26T00:25:05.314Z,15.02
2018-04-26T00:27:35.029Z,15.06
2018-04-26T00:30:04.706Z,14.89
2018-04-26T00:32:33.822Z,14.94
2018-04-26T00:35:02.247Z,15.04
2018-04-26T00:37:31.629Z,14.98
2018-04-26T00:40:00.383Z,14.76
2018-04-26T00:42:29.159Z,14.57
2018-04-26T00:44:57.844Z,14.62
2018-04-26T00:47:27.745Z,14.71
2018-04-26T00:49:56.924Z,14.77
2018-04-26T00:52:26.165Z,14.63
2018-04-26T00:54:55.139Z,14.58
2018-04-26T00:57:24.634Z,14.50
2018-04-26T00:59:53.543Z,14.57
2018-04-26T01:02:22.308Z,14.57
2018-04-26T01:04:50.657Z,14.51
2018-04-26T01:07:19.026Z,14.45
2018-04-26T01:09:47.378Z,14.49
2018-04-26T01:12:16.228Z,14.45
2018-04-26T01:14:44.574Z,14.44
2018-04-26T01:17:12.930Z,14.34
2018-04-26T01:19:41.683Z,14.35
2018-04-26T01:22:10.055Z,14.38
2018-04-26T01:24:38.419Z,14.22
2018-04-26T01:27:06.774Z,14.22
2018-04-26T01:29:36.090Z,14.15
2018-04-26T01:32:04.475Z,14.09
2018-04-26T01:34:32.863Z,13.97
2018-04-26T01:37:19.065Z,14.06
2018-04-26T01:39:47.426Z,13.87
2018-04-26T01:42:15.780Z,14.04
2018-04-26T01:44:44.134Z,13.95
2018-04-26T01:47:12.982Z,13.84
2018-04-26T01:49:41.350Z,13.94
2018-04-26T01:52:11.406Z,13.82
2018-04-26T01:54:39.868Z,13.82
2018-04-26T01:57:08.233Z,13.72
2018-04-26T01:59:36.618Z,13.76
2018-04-26T02:02:04.995Z,13.79
2018-04-26T02:04:33.373Z,13.75
2018-04-26T02:07:01.727Z,13.67
2018-04-26T02:09:30.125Z,13.53
2018-04-26T02:11:58.493Z,13.64
2018-04-26T02:14:26.850Z,13.57
2018-04-26T02:16:55.207Z,13.50
2018-04-26T02:19:24.061Z,13.58
2018-04-26T02:21:52.468Z,13.55
2018-04-26T02:24:20.837Z,13.56
2018-04-26T02:26:49.196Z,13.51
2018-04-26T02:29:17.671Z,13.43
2018-04-26T02:31:46.031Z,13.44
2018-04-26T02:34:14.430Z,13.51
2018-04-26T02:36:42.794Z,13.50
2018-04-26T02:39:11.159Z,13.50
2018-04-26T02:41:39.520Z,13.47
2018-04-26T02:44:08.354Z,13.43
2018-04-26T02:46:36.730Z,13.62
2018-04-26T02:49:05.191Z,13.69
2018-04-26T02:51:33.562Z,13.62
2018-04-26T02:54:01.987Z,13.70
2018-04-26T02:56:30.369Z,13.59
2018-04-26T02:58:58.725Z,13.74
2018-04-26T03:01:27.089Z,13.64
2018-04-26T03:03:55.455Z,13.69
2018-04-26T03:06:23.861Z,13.75
2018-04-26T03:08:52.215Z,13.79
2018-04-26T03:11:20.602Z,13.92
2018-04-26T03:13:49.008Z,13.90
2018-04-26T03:16:17.378Z,13.73
2018-04-26T03:18:45.742Z,13.86
2018-04-26T03:21:14.120Z,13.77
2018-04-26T03:23:42.517Z,13.83
2018-04-26T03:26:10.894Z,13.70
2018-04-26T03:28:39.288Z,13.63
2018-04-26T03:31:07.753Z,13.65
2018-04-26T03:33:36.019Z,13.64
2018-04-26T03:36:04.377Z,13.49
2018-04-26T03:38:32.745Z,13.48
2018-04-26T03:41:01.130Z,13.46
2018-04-26T03:43:29.482Z,13.43
2018-04-26T03:45:57.940Z,13.49
2018-04-26T03:48:26.303Z,13.58
2018-04-26T03:50:54.665Z,13.63
2018-04-26T03:53:23.068Z,13.54
2018-04-26T03:55:51.430Z,13.58
2018-04-26T03:58:19.828Z,13.68
2018-04-26T04:01:06.025Z,13.48
2018-04-26T04:03:52.082Z,13.23
2018-04-26T04:06:20.503Z,13.32
2018-04-26T04:08:48.884Z,13.66
2018-04-26T04:11:17.381Z,13.91
2018-04-26T04:13:45.852Z,14.04
2018-04-26T04:16:15.377Z,14.15
2018-04-26T04:18:43.823Z,14.29
2018-04-26T04:21:12.879Z,14.39
2018-04-26T04:23:41.234Z,14.62
2018-04-26T04:26:09.992Z,14.75
2018-04-26T04:28:38.378Z,15.38
2018-04-26T04:31:06.742Z,15.77
2018-04-26T04:33:35.101Z,16.23
2018-04-26T04:36:03.499Z,16.40
2018-04-26T04:38:31.854Z,16.48
2018-04-26T04:41:00.215Z,16.38
2018-04-26T04:43:28.749Z,16.60
2018-04-26T04:45:57.061Z,16.71
2018-04-26T04:48:25.812Z,16.80
2018-04-26T04:50:54.169Z,16.72
2018-04-26T04:53:22.558Z,16.74
2018-04-26T04:55:50.945Z,16.68
2018-04-26T04:58:19.303Z,16.92
2018-04-26T05:00:47.695Z,17.51
2018-04-26T05:03:16.047Z,18.35
2018-04-26T05:05:44.404Z,19.00
2018-04-26T05:08:13.147Z,19.33
2018-04-26T05:10:41.505Z,20.04
2018-04-26T05:13:09.850Z,20.59
2018-04-26T05:15:38.686Z,20.17
2018-04-26T05:18:07.078Z,19.96
2018-04-26T05:20:35.450Z,19.97
2018-04-26T05:23:03.827Z,19.48
2018-04-26T05:25:32.209Z,18.92
2018-04-26T05:28:00.582Z,18.46
2018-04-26T05:30:28.945Z,18.29
2018-04-26T05:32:57.294Z,18.02
2018-04-26T05:35:26.054Z,17.71
2018-04-26T05:37:54.410Z,17.55
2018-04-26T05:40:22.759Z,17.15
2018-04-26T05:42:51.119Z,17.16
2018-04-26T05:45:19.887Z,17.09
2018-04-26T05:47:48.646Z,17.18
2018-04-26T05:50:17.010Z,16.96
2018-04-26T05:52:45.378Z,16.97
2018-04-26T05:55:13.783Z,17.18
2018-04-26T05:57:42.266Z,17.35
2018-04-26T06:00:10.634Z,17.71
2018-04-26T06:02:39.077Z,18.13
2018-04-26T06:05:07.441Z,18.57
2018-04-26T06:07:36.190Z,18.24
2018-04-26T06:10:04.698Z,18.25
2018-04-26T06:12:33.141Z,18.41
2018-04-26T06:15:01.509Z,18.27
2018-04-26T06:17:29.868Z,18.31
2018-04-26T06:19:58.243Z,18.13
2018-04-26T06:22:26.637Z,18.00
2018-04-26T06:24:55.039Z,17.72
2018-04-26T06:27:23.429Z,17.73
2018-04-26T06:29:51.779Z,17.60
2018-04-26T06:32:20.173Z,17.65
2018-04-26T06:34:48.530Z,17.41
2018-04-26T06:37:16.885Z,17.56
2018-04-26T06:39:45.313Z,17.67
2018-04-26T06:42:13.736Z,17.59
2018-04-26T06:44:42.065Z,17.86
2018-04-26T06:47:10.442Z,18.02
2018-04-26T06:49:38.810Z,18.02
2018-04-26T06:52:07.200Z,18.20
2018-04-26T06:54:35.550Z,17.60
2018-04-26T06:57:03.930Z,17.53
2018-04-26T06:59:32.291Z,17.39
2018-04-26T07:02:01.121Z,17.41
2018-04-26T07:04:29.486Z,17.44
2018-04-26T07:06:57.886Z,17.46
2018-04-26T07:09:26.270Z,17.41
2018-04-26T07:11:54.622Z,17.57
2018-04-26T07:14:22.977Z,17.48
2018-04-26T07:16:51.810Z,17.52
2018-04-26T07:19:20.307Z,17.53
2018-04-26T07:21:48.676Z,17.25
2018-04-26T07:24:17.063Z,17.33
2018-04-26T07:26:45.498Z,16.97
2018-04-26T07:29:13.905Z,17.09
2018-04-26T07:31:42.304Z,16.67
2018-04-26T07:34:10.662Z,17.06
2018-04-26T07:36:39.035Z,17.79
2018-04-26T07:39:07.390Z,18.31
2018-04-26T07:41:35.767Z,18.94
2018-04-26T07:44:04.191Z,19.89
2018-04-26T07:46:32.562Z,21.88
2018-04-26T07:49:00.918Z,24.53
2018-04-26T07:51:29.298Z,26.61
2018-04-26T07:53:57.679Z,27.96
2018-04-26T07:56:26.043Z,30.20
2018-04-26T07:58:54.431Z,31.24
2018-04-26T08:01:22.800Z,31.66
2018-04-26T08:03:51.172Z,30.72
2018-04-26T08:06:20.013Z,30.53
2018-04-26T08:08:48.378Z,29.80
2018-04-26T08:11:16.753Z,28.32
2018-04-26T08:13:45.118Z,28.13
2018-04-26T08:16:13.520Z,27.49
2018-04-26T08:18:41.896Z,26.61
2018-04-26T08:21:10.250Z,27.95
2018-04-26T08:23:38.666Z,27.96
2018-04-26T08:26:07.027Z,28.82
2018-04-26T08:28:35.383Z,28.39
2018-04-26T08:31:03.798Z,26.66
2018-04-26T08:33:32.486Z,23.94
2018-04-26T08:36:00.956Z,21.32
2018-04-26T08:38:29.314Z,20.08
2018-04-26T08:40:57.727Z,19.42
2018-04-26T08:43:26.091Z,18.68
2018-04-26T08:45:54.477Z,17.85
2018-04-26T08:48:22.862Z,17.62
2018-04-26T08:50:51.458Z,17.38
2018-04-26T08:53:19.826Z,16.74
2018-04-26T08:55:48.302Z,16.64
2018-04-26T08:58:16.695Z,16.35
2018-04-26T09:00:45.054Z,16.48
2018-04-26T09:03:13.454Z,16.54
2018-04-26T09:05:41.919Z,16.23
2018-04-26T09:08:10.298Z,16.22
2018-04-26T09:10:38.650Z,16.18
2018-04-26T09:13:07.009Z,15.57
2018-04-26T09:15:35.512Z,15.18
2018-04-26T09:18:04.426Z,14.93
2018-04-26T09:20:32.802Z,14.02
2018-04-26T09:23:01.162Z,14.11
2018-04-26T09:25:29.545Z,13.85
2018-04-26T09:27:57.902Z,14.11
2018-04-26T09:30:26.254Z,13.77
2018-04-26T09:32:54.651Z,13.70
2018-04-26T09:35:23.412Z,13.81
2018-04-26T09:37:51.975Z,13.59
2018-04-26T09:40:20.351Z,13.47
2018-04-26T09:42:48.711Z,13.63
2018-04-26T09:45:17.352Z,14.19
2018-04-26T09:47:45.787Z,14.85
2018-04-26T09:50:14.143Z,16.04
2018-04-26T09:52:42.551Z,17.51
2018-04-26T09:55:10.912Z,18.52
2018-04-26T09:57:39.988Z,19.46
2018-04-26T10:00:08.338Z,20.16
2018-04-26T10:02:42.583Z,20.15
2018-04-26T10:05:11.826Z,20.39
2018-04-26T10:07:40.195Z,21.84
2018-04-26T10:10:08.573Z,23.06
2018-04-26T10:12:36.938Z,24.12
2018-04-26T10:15:05.324Z,25.46
2018-04-26T10:17:33.712Z,26.23
2018-04-26T10:20:02.073Z,24.63
2018-04-26T10:22:30.470Z,23.89
2018-04-26T10:24:58.823Z,23.86
2018-04-26T10:27:27.184Z,24.09
2018-04-26T10:29:55.573Z,25.53
2018-04-26T10:32:24.306Z,26.76
2018-04-26T10:34:52.676Z,26.43
2018-04-26T10:37:21.137Z,25.62
2018-04-26T10:39:49.490Z,24.82
2018-04-26T10:42:17.852Z,24.50
2018-04-26T10:44:46.609Z,23.53
2018-04-26T10:47:14.975Z,22.80
2018-04-26T10:49:43.338Z,22.34
2018-04-26T10:52:11.706Z,22.32
2018-04-26T10:54:40.087Z,22.26
2018-04-26T10:57:08.457Z,21.98
2018-04-26T10:59:37.892Z,21.83
2018-04-26T11:02:06.269Z,21.43
2018-04-26T11:04:34.651Z,20.01
2018-04-26T11:07:03.026Z,19.95
2018-04-26T11:09:31.392Z,19.88
2018-04-26T11:11:59.760Z,19.44
2018-04-26T11:14:28.106Z,19.57
2018-04-26T11:16:56.861Z,20.04
2018-04-26T11:19:25.237Z,20.16
2018-04-26T11:21:53.597Z,19.97
2018-04-26T11:24:22.055Z,19.85
2018-04-26T11:26:50.377Z,20.00
2018-04-26T11:29:18.884Z,20.16
2018-04-26T11:31:47.251Z,19.88
2018-04-26T11:34:15.596Z,19.82
2018-04-26T11:36:43.958Z,19.28
2018-04-26T11:39:12.297Z,18.52
2018-04-26T11:41:40.682Z,18.48
2018-04-26T11:44:09.422Z,18.54
2018-04-26T11:46:37.807Z,18.61
2018-04-26T11:49:06.254Z,18.50
2018-04-26T11:51:34.615Z,18.54
2018-04-26T11:54:03.358Z,18.56
2018-04-26T11:56:31.732Z,18.57
2018-04-26T11:59:00.089Z,18.85
2018-04-26T12:01:28.446Z,19.41
2018-04-26T12:03:56.805Z,19.93
2018-04-26T12:06:25.177Z,20.33
2018-04-26T12:08:53.930Z,20.31
2018-04-26T12:11:22.296Z,20.70
2018-04-26T12:13:50.718Z,20.32
2018-04-26T12:16:19.275Z,20.17
2018-04-26T12:18:47.674Z,20.57
2018-04-26T12:21:16.039Z,20.55
2018-04-26T12:23:44.436Z,20.58
2018-04-26T12:26:12.790Z,20.58
2018-04-26T12:28:41.268Z,20.21
2018-04-26T12:31:10.072Z,20.15
2018-04-26T12:33:38.431Z,20.21
2018-04-26T12:36:06.796Z,20.41
2018-04-26T12:38:35.170Z,20.68
2018-04-26T12:41:03.618Z,20.87
2018-04-26T12:43:32.004Z,20.90
2018-04-26T12:46:00.851Z,21.21
2018-04-26T12:48:29.229Z,21.21
2018-04-26T12:50:57.593Z,20.93
2018-04-26T12:53:25.959Z,20.34
2018-04-26T12:55:54.349Z,20.69
2018-04-26T12:58:22.741Z,20.66
2018-04-26T13:00:51.120Z,19.90
2018-04-26T13:03:19.486Z,20.03
2018-04-26T13:05:47.890Z,20.36
2018-04-26T13:08:16.251Z,19.76
2018-04-26T13:10:44.623Z,19.34
2018-04-26T13:13:13.017Z,18.48
2018-04-26T13:15:41.399Z,17.83
2018-04-26T13:18:09.767Z,17.34
2018-04-26T13:20:38.141Z,16.93
2018-04-26T13:23:06.506Z,16.85
2018-04-26T13:25:34.911Z,16.99
2018-04-26T13:28:03.260Z,17.41
2018-04-26T13:30:31.623Z,17.86
2018-04-26T13:32:59.974Z,18.39
2018-04-26T13:35:28.812Z,18.61
2018-04-26T13:37:57.187Z,18.67
2018-04-26T13:40:25.586Z,18.79
2018-04-26T13:42:53.942Z,18.63
2018-04-26T13:45:22.307Z,18.80
2018-04-26T13:47:50.653Z,18.93
2018-04-26T13:50:19.030Z,18.76
2018-04-26T13:52:47.498Z,18.95
2018-04-26T13:55:15.973Z,18.69
2018-04-26T13:57:44.327Z,18.70
2018-04-26T14:00:12.696Z,19.30
2018-04-26T14:02:41.108Z,19.54
2018-04-26T14:05:09.495Z,19.30
2018-04-26T14:07:37.859Z,18.78
2018-04-26T14:10:06.234Z,18.48
2018-04-26T14:12:34.618Z,18.60
2018-04-26T14:15:03.049Z,18.61
2018-04-26T14:17:31.398Z,18.88
2018-04-26T14:19:59.736Z,19.04
2018-04-26T14:22:28.110Z,18.78
2018-04-26T14:24:56.471Z,19.07
2018-04-26T14:27:25.074Z,19.08
2018-04-26T14:29:53.439Z,18.77
2018-04-26T14:32:21.854Z,19.22
2018-04-26T14:34:50.317Z,19.35
2018-04-26T14:37:18.743Z,19.22
2018-04-26T14:39:47.091Z,19.84
2018-04-26T14:42:15.449Z,20.06
2018-04-26T14:44:43.811Z,19.83
2018-04-26T14:47:12.229Z,20.01
2018-04-26T14:49:40.640Z,20.24
2018-04-26T14:52:08.975Z,19.95
2018-04-26T14:54:37.333Z,20.16
2018-04-26T14:57:05.750Z,19.61
2018-04-26T14:59:34.133Z,19.44
2018-04-26T15:02:02.502Z,18.26
2018-04-26T15:04:30.863Z,17.63
2018-04-26T15:06:59.264Z,16.91
2018-04-26T15:09:27.619Z,16.40
2018-04-26T15:11:55.985Z,15.71
2018-04-26T15:14:24.336Z,15.85
2018-04-26T15:16:53.177Z,15.81
2018-04-26T15:19:21.547Z,15.63
2018-04-26T15:21:49.917Z,15.64
2018-04-26T15:24:18.273Z,15.71
2018-04-26T15:26:47.027Z,15.45
2018-04-26T15:29:15.371Z,15.74
2018-04-26T15:31:44.691Z,16.18
2018-04-26T15:34:13.039Z,16.24
2018-04-26T15:36:41.446Z,16.46
2018-04-26T15:39:09.828Z,16.60
2018-04-26T15:41:38.184Z,16.79
2018-04-26T15:44:06.571Z,16.77
2018-04-26T15:46:34.968Z,16.99
2018-04-26T15:49:03.334Z,16.97
2018-04-26T15:51:31.752Z,17.52
2018-04-26T15:54:17.910Z,18.18
2018-04-26T15:57:03.953Z,18.24
2018-04-26T16:03:08.443Z,17.55
2018-04-26T16:05:54.619Z,17.51
2018-04-26T16:08:44.062Z,17.54
2018-04-26T16:14:55.326Z,17.84
2018-04-26T16:17:47.170Z,18.00
2018-04-26T16:24:03.683Z,17.65
2018-04-26T16:26:55.555Z,17.71
2018-04-26T16:29:42.054Z,17.48
2018-04-26T16:32:34.373Z,17.51
2018-04-26T16:35:21.582Z,17.45
2018-04-26T16:38:13.546Z,17.47
2018-04-26T16:40:41.994Z,17.38
2018-04-26T16:43:10.382Z,17.52
2018-04-26T16:45:38.736Z,17.38
2018-04-26T16:48:07.121Z,16.99
2018-04-26T16:50:35.485Z,17.07
2018-04-26T16:53:03.875Z,16.68
2018-04-26T16:55:32.246Z,16.69
2018-04-26T16:58:00.601Z,16.64
2018-04-26T17:00:29.014Z,16.87
2018-04-26T17:02:57.392Z,16.79
2018-04-26T17:05:25.779Z,16.66
2018-04-26T17:07:54.152Z,17.11
2018-04-26T17:10:22.533Z,17.47
2018-04-26T17:12:50.908Z,17.20
2018-04-26T17:15:19.384Z,17.19
2018-04-26T17:17:47.650Z,17.05
2018-04-26T17:20:16.001Z,17.09
2018-04-26T17:22:44.385Z,17.12
2018-04-26T17:25:13.140Z,16.69
2018-04-26T17:27:41.603Z,16.95
2018-04-26T17:30:09.958Z,17.21
2018-04-26T17:32:38.342Z,16.93
2018-04-26T17:35:06.703Z,16.93
2018-04-26T17:37:35.246Z,16.77
2018-04-26T17:40:03.799Z,16.93
2018-04-26T17:42:32.187Z,17.01
2018-04-26T17:45:00.551Z,17.11
2018-04-26T17:47:28.943Z,17.00
2018-04-26T17:49:57.392Z,16.56
2018-04-26T17:52:25.744Z,16.73
2018-04-26T17:54:54.503Z,16.75
2018-04-26T17:57:22.918Z,16.77
2018-04-26T17:59:51.281Z,16.70
2018-04-26T18:02:20.036Z,16.65
2018-04-26T18:04:48.397Z,16.76
2018-04-26T18:07:16.750Z,16.63
2018-04-26T18:09:45.100Z,16.78
2018-04-26T18:12:13.459Z,16.43
2018-04-26T18:14:41.809Z,16.22
2018-04-26T18:17:10.157Z,15.98
2018-04-26T18:19:38.615Z,15.34
2018-04-26T18:22:07.026Z,15.39
2018-04-26T18:24:35.373Z,15.53
2018-04-26T18:27:04.162Z,15.69
2018-04-26T18:29:32.907Z,15.99
2018-04-26T18:32:01.317Z,16.28
2018-04-26T18:34:29.675Z,16.22
2018-04-26T18:36:58.061Z,16.06
2018-04-26T18:39:26.417Z,15.80
2018-04-26T18:41:54.797Z,15.57
2018-04-26T18:44:23.150Z,15.60
2018-04-26T18:46:51.538Z,15.86
2018-04-26T18:49:19.886Z,15.75
2018-04-26T18:51:48.707Z,15.76
2018-04-26T18:54:17.072Z,15.65
2018-04-26T18:56:45.438Z,15.73
2018-04-26T18:59:14.256Z,15.32
2018-04-26T19:01:42.627Z,15.35
2018-04-26T19:04:11.000Z,15.35
2018-04-26T19:06:39.444Z,14.99
2018-04-26T19:09:07.832Z,15.12
2018-04-26T19:11:36.774Z,14.80
2018-04-26T19:14:05.132Z,14.92
2018-04-26T19:16:34.293Z,15.12
2018-04-26T19:19:02.732Z,15.27
2018-04-26T19:21:31.113Z,15.33
2018-04-26T19:23:59.494Z,15.34
2018-04-26T19:26:27.874Z,15.12
2018-04-26T19:28:56.278Z,15.21
2018-04-26T19:31:24.733Z,15.18
2018-04-26T19:33:53.108Z,15.10
2018-04-26T19:36:21.499Z,15.19
2018-04-26T19:38:49.849Z,15.15
2018-04-26T19:41:18.259Z,14.80
2018-04-26T19:43:46.647Z,14.94
2018-04-26T19:46:15.011Z,14.83
2018-04-26T19:48:43.963Z,14.92
2018-04-26T19:51:12.807Z,14.89
2018-04-26T19:53:41.256Z,14.80
2018-04-26T19:56:09.666Z,14.68
2018-04-26T19:58:38.062Z,14.54
2018-04-26T20:01:06.441Z,14.42
2018-04-26T20:03:34.800Z,14.55
2018-04-26T20:06:03.239Z,14.42
2018-04-26T20:08:31.660Z,14.35
2018-04-26T20:11:00.083Z,14.44
2018-04-26T20:13:28.919Z,14.41
2018-04-26T20:15:57.281Z,14.17
2018-04-26T20:18:26.687Z,14.04
2018-04-26T20:20:55.063Z,14.18
2018-04-26T20:23:23.354Z,14.15
2018-04-26T20:25:52.460Z,13.97
2018-04-26T20:28:20.860Z,14.18
2018-04-26T20:30:49.227Z,14.16
2018-04-26T20:33:17.577Z,14.17
2018-04-26T20:35:45.940Z,14.13
2018-04-26T20:38:14.352Z,14.16
2018-04-26T20:40:42.718Z,14.23
2018-04-26T20:43:11.115Z,14.21
2018-04-26T20:45:39.475Z,14.46
2018-04-26T20:48:07.930Z,14.32
2018-04-26T20:50:36.368Z,14.24
2018-04-26T20:53:04.662Z,14.52
2018-04-26T20:55:33.418Z,14.41
2018-04-26T20:58:01.827Z,14.77
2018-04-26T21:00:31.172Z,14.89
2018-04-26T21:02:59.527Z,14.79
2018-04-26T21:05:28.353Z,14.41
2018-04-26T21:07:56.698Z,14.52
2018-04-26T21:10:25.143Z,14.87
2018-04-26T21:12:53.691Z,15.01
2018-04-26T21:15:22.125Z,15.01
2018-04-26T21:17:50.911Z,15.07
2018-04-26T21:20:19.298Z,15.07
2018-04-26T21:22:48.084Z,15.18
2018-04-26T21:25:16.839Z,15.26
2018-04-26T21:27:45.218Z,15.23
2018-04-26T21:30:13.729Z,15.29
2018-04-26T21:32:42.518Z,15.32
2018-04-26T21:35:11.367Z,15.40
2018-04-26T21:37:39.739Z,15.31
2018-04-26T21:40:08.136Z,15.08
2018-04-26T21:42:36.499Z,14.96
2018-04-26T21:45:04.880Z,14.98
2018-04-26T21:47:33.253Z,14.99
2018-04-26T21:50:07.215Z,15.01
2018-04-26T21:52:41.497Z,14.81
2018-04-26T21:55:15.342Z,14.58
2018-04-26T21:57:49.667Z,14.61
2018-04-26T22:00:24.063Z,14.49
2018-04-26T22:02:51.760Z,14.38
2018-04-26T22:05:22.024Z,14.37
2018-04-26T22:07:50.392Z,14.34
2018-04-26T22:10:18.783Z,14.45
2018-04-26T22:12:47.171Z,14.55
2018-04-26T22:15:15.531Z,14.46
2018-04-26T22:17:43.896Z,14.46
2018-04-26T22:20:12.259Z,14.37
2018-04-26T22:22:40.677Z,14.46
2018-04-26T22:25:09.047Z,14.45
2018-04-26T22:27:37.434Z,14.33
2018-04-26T22:30:05.780Z,14.18
2018-04-26T22:32:34.130Z,14.11
2018-04-26T22:35:02.891Z,14.22
2018-04-26T22:37:31.306Z,14.19
2018-04-26T22:39:59.663Z,14.14
2018-04-26T22:42:28.019Z,14.10
2018-04-26T22:44:56.403Z,13.92
2018-04-26T22:47:24.871Z,14.00
2018-04-26T22:49:53.423Z,14.04
2018-04-26T22:52:21.816Z,14.06
2018-04-26T22:54:50.189Z,13.72
2018-04-26T22:57:18.549Z,13.89
2018-04-26T22:59:46.939Z,13.78
2018-04-26T23:02:15.314Z,13.91
2018-04-26T23:04:43.703Z,13.82
2018-04-26T23:07:12.070Z,13.95
2018-04-26T23:09:40.839Z,13.77
2018-04-26T23:12:09.582Z,13.87
2018-04-26T23:14:37.981Z,13.93
2018-04-26T23:17:06.358Z,13.95
2018-04-26T23:19:34.726Z,13.81
2018-04-26T23:22:03.087Z,13.88
2018-04-26T23:24:31.479Z,14.07
2018-04-26T23:26:59.847Z,14.06
2018-04-26T23:29:28.258Z,14.30
2018-04-26T23:31:56.610Z,14.17
2018-04-26T23:34:24.977Z,14.33
2018-04-26T23:36:53.332Z,14.46
2018-04-26T23:39:21.714Z,14.58
2018-04-26T23:41:50.072Z,14.80
2018-04-26T23:44:18.824Z,14.86
2018-04-26T23:46:47.206Z,14.92
2018-04-26T23:49:15.563Z,14.86
2018-04-26T23:51:43.936Z,14.90
2018-04-26T23:54:12.293Z,14.69
2018-04-26T23:56:40.686Z,14.69
2018-04-26T23:59:09.058Z,14.89
